Portada
METAR-TAF:

METAR-TAF

Aeroports :

Kuantan, Malàisia

latitud: 03-37N, longitud: 103-13E, altitud: 18 m

Observació

L'informe es va fer fa 49 minuts, a les 17:00 UTC
Vent 1 kt amb direcció variable
Temperatura 26°C
Humitat 89%
Pressió 1008 hPa
Visibilitat 10 km o més
Escasses núvols a una alçada de 2500 ft

METAR: WMKD 301700Z VRB01KT 9999 FEW025 26/24 Q1008 NOSIG

Hora: 01:49 (17:49 UTC)


TAF: manca

Observacions i pronòstics meteorològics de més de 4000 aeroports (METAR i TAF).

Les estacions disponibles són els punts grocs i vermells al mapa.

Posi el ratolí al punt desitjat per veure el nom de l'estació.

Feu clic per veure les observacions i els pronòstics meteorològics.

Per canviar el mapa: feu clic els botons verds amb una creu de color negre per apropar; al botó verd amb un guió per allunyar la imatge; o en les fletxes verdes per a mapes adjacents.


METAR-TAF: